YMA7489 KRNO-KPDX
Flight info
| Callsign | YMA7489 |
|---|---|
| Flight time | 1h 5m |
| Altitude | 32000 |
| Route | KRNO HALLE WNDEL J92 LMT GALLO KPDX |
| Aircraft | B738/M-VGDW/C |
Departure
| Time | 2026-05-07 09:18 |
|---|---|
| Airport | Reno Tahoe International Airport (KRNO) |
Arrival
| Time | 2026-05-07 10:23 |
|---|---|
| Airport | Portland International Airport (KPDX) |
| Time | Latitude | Longitude | Altitude | Speed | Heading |
|---|---|---|---|---|---|
| 2026-05-07 08:43 | 39.50519 | -119.77316 | 4420 ft | 0 kts | 180° |
| 2026-05-07 09:07 | 39.50534 | -119.77316 | 4423 ft | 2 kts | 181° |
| 2026-05-07 09:07 | 39.50550 | -119.77320 | 4421 ft | 2 kts | 142° |
| 2026-05-07 09:07 | 39.50558 | -119.77337 | 4421 ft | 2 kts | 99° |
| 2026-05-07 09:07 | 39.50559 | -119.77355 | 4420 ft | 0 kts | 85° |
| 2026-05-07 09:08 | 39.50559 | -119.77351 | 4420 ft | 0 kts | 85° |
| 2026-05-07 09:10 | 39.50561 | -119.77313 | 4420 ft | 11 kts | 85° |
| 2026-05-07 09:10 | 39.50551 | -119.77182 | 4421 ft | 16 kts | 119° |
| 2026-05-07 09:10 | 39.50459 | -119.77154 | 4419 ft | 14 kts | 182° |
| 2026-05-07 09:10 | 39.50363 | -119.77153 | 4420 ft | 14 kts | 178° |
| 2026-05-07 09:11 | 39.50271 | -119.77154 | 4421 ft | 13 kts | 181° |
| 2026-05-07 09:11 | 39.50182 | -119.77157 | 4419 ft | 13 kts | 181° |
| 2026-05-07 09:11 | 39.50093 | -119.77156 | 4417 ft | 13 kts | 179° |
| 2026-05-07 09:11 | 39.50005 | -119.77156 | 4418 ft | 13 kts | 180° |
| 2026-05-07 09:12 | 39.49919 | -119.77155 | 4419 ft | 12 kts | 180° |
| 2026-05-07 09:12 | 39.49834 | -119.77154 | 4418 ft | 12 kts | 179° |
| 2026-05-07 09:12 | 39.49744 | -119.77154 | 4416 ft | 13 kts | 179° |
| 2026-05-07 09:12 | 39.49653 | -119.77153 | 4416 ft | 13 kts | 180° |
| 2026-05-07 09:13 | 39.49564 | -119.77155 | 4418 ft | 13 kts | 181° |
| 2026-05-07 09:13 | 39.49478 | -119.77157 | 4418 ft | 12 kts | 180° |
| 2026-05-07 09:13 | 39.49392 | -119.77157 | 4416 ft | 13 kts | 179° |
| 2026-05-07 09:13 | 39.49295 | -119.77156 | 4416 ft | 15 kts | 179° |
| 2026-05-07 09:14 | 39.49195 | -119.77154 | 4418 ft | 14 kts | 179° |
| 2026-05-07 09:14 | 39.49100 | -119.77156 | 4419 ft | 14 kts | 181° |
| 2026-05-07 09:14 | 39.48993 | -119.77154 | 4418 ft | 16 kts | 178° |
| 2026-05-07 09:14 | 39.48925 | -119.77112 | 4416 ft | 9 kts | 89° |
| 2026-05-07 09:15 | 39.48926 | -119.77039 | 4417 ft | 0 kts | 90° |
| 2026-05-07 09:15 | 39.48926 | -119.76991 | 4417 ft | 5 kts | 86° |
| 2026-05-07 09:15 | 39.48948 | -119.76939 | 4417 ft | 8 kts | 36° |
| 2026-05-07 09:16 | 39.48968 | -119.76932 | 4417 ft | 0 kts | 3° |
| 2026-05-07 09:17 | 39.48985 | -119.76931 | 4418 ft | 23 kts | 3° |
| 2026-05-07 09:17 | 39.49490 | -119.76927 | 4419 ft | 119 kts | 0° |
| 2026-05-07 09:18 | 39.50579 | -119.76928 | 4420 ft | 194 kts | 360° |
| 2026-05-07 09:18 | 39.52094 | -119.76921 | 4869 ft | 221 kts | 0° |
| 2026-05-07 09:18 | 39.53695 | -119.76901 | 5769 ft | 245 kts | 2° |
| 2026-05-07 09:18 | 39.55486 | -119.76816 | 6218 ft | 265 kts | 1° |
| 2026-05-07 09:19 | 39.57366 | -119.76743 | 6690 ft | 275 kts | 0° |
| 2026-05-07 09:19 | 39.59294 | -119.76660 | 7170 ft | 278 kts | 1° |
| 2026-05-07 09:19 | 39.61236 | -119.76587 | 7748 ft | 280 kts | 360° |
| 2026-05-07 09:19 | 39.63198 | -119.76546 | 8334 ft | 283 kts | 360° |
| 2026-05-07 09:20 | 39.65139 | -119.76795 | 8826 ft | 287 kts | 340° |
| 2026-05-07 09:20 | 39.66926 | -119.77912 | 9386 ft | 284 kts | 330° |
| 2026-05-07 09:20 | 39.68696 | -119.79103 | 10070 ft | 289 kts | 332° |
| 2026-05-07 09:20 | 39.70509 | -119.80296 | 10672 ft | 294 kts | 332° |
| 2026-05-07 09:21 | 39.72370 | -119.81524 | 11257 ft | 306 kts | 332° |
| 2026-05-07 09:21 | 39.74301 | -119.82840 | 11831 ft | 318 kts | 330° |
| 2026-05-07 09:21 | 39.76291 | -119.84206 | 12396 ft | 328 kts | 330° |
| 2026-05-07 09:21 | 39.78339 | -119.85600 | 12942 ft | 337 kts | 330° |
| 2026-05-07 09:22 | 39.80424 | -119.87007 | 13492 ft | 347 kts | 331° |
| 2026-05-07 09:22 | 39.82595 | -119.88467 | 14043 ft | 354 kts | 330° |
| 2026-05-07 09:22 | 39.84781 | -119.89982 | 14538 ft | 355 kts | 330° |
| 2026-05-07 09:22 | 39.86969 | -119.91510 | 15021 ft | 358 kts | 330° |
| 2026-05-07 09:23 | 39.89173 | -119.93046 | 15508 ft | 361 kts | 330° |
| 2026-05-07 09:23 | 39.91385 | -119.94614 | 15997 ft | 362 kts | 329° |
| 2026-05-07 09:23 | 39.93567 | -119.96277 | 16488 ft | 365 kts | 328° |
| 2026-05-07 09:23 | 39.95763 | -119.97965 | 16972 ft | 368 kts | 328° |
| 2026-05-07 09:24 | 39.97952 | -119.99640 | 17463 ft | 369 kts | 328° |
| 2026-05-07 09:24 | 40.00176 | -120.01345 | 17962 ft | 372 kts | 328° |
| 2026-05-07 09:24 | 40.02418 | -120.03066 | 18447 ft | 375 kts | 328° |
| 2026-05-07 09:24 | 40.04682 | -120.04807 | 18879 ft | 377 kts | 328° |
| 2026-05-07 09:25 | 40.06947 | -120.06557 | 19320 ft | 379 kts | 328° |
| 2026-05-07 09:25 | 40.09237 | -120.08285 | 19761 ft | 381 kts | 329° |
| 2026-05-07 09:25 | 40.11544 | -120.10014 | 20187 ft | 384 kts | 329° |
| 2026-05-07 09:25 | 40.13863 | -120.11765 | 20627 ft | 385 kts | 329° |
| 2026-05-07 09:26 | 40.16187 | -120.13528 | 21067 ft | 387 kts | 329° |
| 2026-05-07 09:26 | 40.18522 | -120.15305 | 21508 ft | 390 kts | 329° |
| 2026-05-07 09:26 | 40.20874 | -120.17112 | 21903 ft | 393 kts | 329° |
| 2026-05-07 09:26 | 40.23237 | -120.18931 | 22297 ft | 394 kts | 329° |
| 2026-05-07 09:27 | 40.25575 | -120.20734 | 22684 ft | 396 kts | 329° |
| 2026-05-07 09:27 | 40.27955 | -120.22577 | 23072 ft | 398 kts | 329° |
| 2026-05-07 09:27 | 40.32751 | -120.26322 | 23812 ft | 403 kts | 329° |
| 2026-05-07 09:28 | 40.35160 | -120.28208 | 24163 ft | 404 kts | 329° |
| 2026-05-07 09:28 | 40.37575 | -120.30104 | 24532 ft | 406 kts | 329° |
| 2026-05-07 09:28 | 40.39983 | -120.32067 | 24896 ft | 409 kts | 328° |
| 2026-05-07 09:28 | 40.42428 | -120.33997 | 25248 ft | 411 kts | 330° |
| 2026-05-07 09:29 | 40.44910 | -120.35882 | 25612 ft | 412 kts | 330° |
| 2026-05-07 09:29 | 40.47399 | -120.37776 | 25964 ft | 415 kts | 330° |
| 2026-05-07 09:29 | 40.49879 | -120.39661 | 26308 ft | 417 kts | 330° |
| 2026-05-07 09:29 | 40.52398 | -120.41574 | 26647 ft | 419 kts | 330° |
| 2026-05-07 09:30 | 40.54907 | -120.43529 | 26989 ft | 420 kts | 329° |
| 2026-05-07 09:30 | 40.57420 | -120.45527 | 27325 ft | 422 kts | 329° |
| 2026-05-07 09:30 | 40.59943 | -120.47537 | 27650 ft | 425 kts | 329° |
| 2026-05-07 09:30 | 40.62481 | -120.49564 | 27977 ft | 427 kts | 329° |
| 2026-05-07 09:31 | 40.65031 | -120.51594 | 28303 ft | 429 kts | 329° |
| 2026-05-07 09:31 | 40.67616 | -120.53591 | 28626 ft | 431 kts | 330° |
| 2026-05-07 09:31 | 40.70217 | -120.55584 | 28941 ft | 433 kts | 330° |
| 2026-05-07 09:31 | 40.72790 | -120.57561 | 29250 ft | 434 kts | 330° |
| 2026-05-07 09:32 | 40.75410 | -120.59580 | 29578 ft | 436 kts | 330° |
| 2026-05-07 09:32 | 40.78030 | -120.61638 | 29901 ft | 439 kts | 329° |
| 2026-05-07 09:32 | 40.80649 | -120.63739 | 30209 ft | 442 kts | 329° |
| 2026-05-07 09:32 | 40.83277 | -120.65853 | 30504 ft | 443 kts | 329° |
| 2026-05-07 09:33 | 40.85919 | -120.67981 | 30817 ft | 445 kts | 329° |
| 2026-05-07 09:33 | 40.88572 | -120.70113 | 31135 ft | 447 kts | 329° |
| 2026-05-07 09:33 | 40.91235 | -120.72252 | 31438 ft | 449 kts | 329° |
| 2026-05-07 09:33 | 40.93930 | -120.74360 | 31748 ft | 450 kts | 330° |
| 2026-05-07 09:34 | 40.96646 | -120.76457 | 32040 ft | 452 kts | 330° |
| 2026-05-07 09:34 | 41.02099 | -120.80715 | 32118 ft | 461 kts | 329° |
| 2026-05-07 09:35 | 41.07579 | -120.85126 | 32124 ft | 459 kts | 329° |
| 2026-05-07 09:35 | 41.13042 | -120.89513 | 32125 ft | 458 kts | 329° |
| 2026-05-07 09:36 | 41.18467 | -120.93875 | 32125 ft | 458 kts | 329° |
| 2026-05-07 09:36 | 41.23934 | -120.98257 | 32097 ft | 460 kts | 329° |
| 2026-05-07 09:37 | 41.29425 | -121.02656 | 31923 ft | 458 kts | 329° |
| 2026-05-07 09:37 | 41.34839 | -121.06991 | 31909 ft | 455 kts | 329° |
| 2026-05-07 09:38 | 41.40285 | -121.11347 | 31909 ft | 456 kts | 329° |
| 2026-05-07 09:38 | 41.45742 | -121.15700 | 31909 ft | 456 kts | 329° |
| 2026-05-07 09:39 | 41.51154 | -121.20020 | 31906 ft | 456 kts | 329° |
| 2026-05-07 09:39 | 41.56583 | -121.24415 | 31904 ft | 455 kts | 328° |
| 2026-05-07 09:40 | 41.61972 | -121.28878 | 31900 ft | 455 kts | 328° |
| 2026-05-07 09:40 | 41.67367 | -121.33326 | 31895 ft | 455 kts | 329° |
| 2026-05-07 09:41 | 41.72780 | -121.37634 | 31895 ft | 455 kts | 329° |
| 2026-05-07 09:41 | 41.78215 | -121.42025 | 31895 ft | 455 kts | 328° |
| 2026-05-07 09:42 | 41.83589 | -121.46459 | 31895 ft | 455 kts | 328° |
| 2026-05-07 09:42 | 41.89012 | -121.50914 | 31910 ft | 455 kts | 328° |
| 2026-05-07 09:43 | 41.94420 | -121.55357 | 31928 ft | 455 kts | 328° |
| 2026-05-07 09:43 | 41.99802 | -121.59762 | 31945 ft | 455 kts | 328° |
| 2026-05-07 09:44 | 42.05222 | -121.64202 | 31960 ft | 455 kts | 329° |
| 2026-05-07 09:44 | 42.10603 | -121.68608 | 31970 ft | 455 kts | 328° |
| 2026-05-07 09:45 | 42.15965 | -121.73136 | 31966 ft | 455 kts | 331° |
| 2026-05-07 09:45 | 42.21772 | -121.76540 | 31977 ft | 455 kts | 338° |
| 2026-05-07 09:46 | 42.27654 | -121.79691 | 31960 ft | 455 kts | 338° |
| 2026-05-07 09:46 | 42.33532 | -121.82889 | 31939 ft | 454 kts | 337° |
| 2026-05-07 09:47 | 42.39372 | -121.86165 | 31918 ft | 454 kts | 336° |
| 2026-05-07 09:47 | 42.45208 | -121.89438 | 31896 ft | 454 kts | 336° |
| 2026-05-07 09:48 | 42.51006 | -121.92740 | 31885 ft | 454 kts | 336° |
| 2026-05-07 09:48 | 42.56805 | -121.96139 | 31880 ft | 454 kts | 336° |
| 2026-05-07 09:49 | 42.62616 | -121.99535 | 31880 ft | 454 kts | 336° |
| 2026-05-07 09:49 | 42.68460 | -122.02794 | 31880 ft | 454 kts | 337° |
| 2026-05-07 09:50 | 42.74255 | -122.06060 | 31879 ft | 454 kts | 336° |
| 2026-05-07 09:50 | 42.80067 | -122.09436 | 31885 ft | 454 kts | 336° |
| 2026-05-07 09:51 | 42.85892 | -122.12818 | 31880 ft | 454 kts | 336° |
| 2026-05-07 09:51 | 42.91669 | -122.16182 | 31881 ft | 454 kts | 338° |
| 2026-05-07 09:52 | 42.97830 | -122.18166 | 31890 ft | 456 kts | 348° |
| 2026-05-07 09:52 | 43.03028 | -122.19375 | 31888 ft | 456 kts | 348° |
| 2026-05-07 09:53 | 43.10277 | -122.21230 | 31885 ft | 454 kts | 347° |
| 2026-05-07 09:53 | 43.16486 | -122.22895 | 31891 ft | 454 kts | 347° |
| 2026-05-07 09:54 | 43.21655 | -122.24277 | 31888 ft | 455 kts | 347° |
| 2026-05-07 09:54 | 43.28880 | -122.26202 | 31891 ft | 454 kts | 346° |
| 2026-05-07 09:55 | 43.34067 | -122.27684 | 31895 ft | 454 kts | 346° |
| 2026-05-07 09:55 | 43.40211 | -122.29444 | 31900 ft | 454 kts | 346° |
| 2026-05-07 09:56 | 43.46402 | -122.31169 | 31902 ft | 454 kts | 347° |
| 2026-05-07 09:56 | 43.52615 | -122.32769 | 31908 ft | 453 kts | 347° |
| 2026-05-07 09:57 | 43.58781 | -122.34464 | 31914 ft | 452 kts | 346° |
| 2026-05-07 09:57 | 43.64961 | -122.36205 | 31912 ft | 453 kts | 346° |
| 2026-05-07 09:58 | 43.71136 | -122.37941 | 31919 ft | 453 kts | 346° |
| 2026-05-07 09:58 | 43.77276 | -122.39662 | 31922 ft | 452 kts | 346° |
| 2026-05-07 09:59 | 43.83458 | -122.41372 | 31927 ft | 452 kts | 346° |
| 2026-05-07 09:59 | 43.89647 | -122.43076 | 31932 ft | 452 kts | 346° |
| 2026-05-07 10:00 | 43.95818 | -122.44770 | 31937 ft | 452 kts | 346° |
| 2026-05-07 10:00 | 44.01949 | -122.46450 | 31944 ft | 451 kts | 346° |
| 2026-05-07 10:01 | 44.08125 | -122.48136 | 31946 ft | 451 kts | 346° |
| 2026-05-07 10:01 | 44.14241 | -122.49866 | 31948 ft | 451 kts | 345° |
| 2026-05-07 10:02 | 44.20391 | -122.51683 | 31955 ft | 451 kts | 345° |
| 2026-05-07 10:02 | 44.26536 | -122.53454 | 31953 ft | 451 kts | 346° |
| 2026-05-07 10:03 | 44.32710 | -122.55103 | 31958 ft | 451 kts | 346° |
| 2026-05-07 10:03 | 44.38835 | -122.56813 | 31960 ft | 451 kts | 345° |
| 2026-05-07 10:04 | 44.44972 | -122.58601 | 31957 ft | 449 kts | 345° |
| 2026-05-07 10:04 | 44.48039 | -122.59487 | 31763 ft | 446 kts | 346° |
| 2026-05-07 10:04 | 44.51088 | -122.60316 | 30665 ft | 445 kts | 346° |
| 2026-05-07 10:04 | 44.54092 | -122.61097 | 29414 ft | 442 kts | 346° |
| 2026-05-07 10:05 | 44.57098 | -122.61870 | 28213 ft | 433 kts | 346° |
| 2026-05-07 10:05 | 44.60007 | -122.62660 | 27120 ft | 418 kts | 345° |
| 2026-05-07 10:05 | 44.62838 | -122.63448 | 26029 ft | 412 kts | 345° |
| 2026-05-07 10:05 | 44.65655 | -122.64229 | 24966 ft | 409 kts | 345° |
| 2026-05-07 10:06 | 44.68393 | -122.65020 | 23958 ft | 405 kts | 345° |
| 2026-05-07 10:06 | 44.71135 | -122.65847 | 22804 ft | 401 kts | 344° |
| 2026-05-07 10:06 | 44.73803 | -122.66622 | 22540 ft | 380 kts | 346° |
| 2026-05-07 10:06 | 44.76390 | -122.67175 | 22611 ft | 371 kts | 349° |
| 2026-05-07 10:07 | 44.78957 | -122.67496 | 22591 ft | 370 kts | 352° |
| 2026-05-07 10:07 | 44.81538 | -122.67646 | 22397 ft | 371 kts | 354° |
| 2026-05-07 10:07 | 44.84175 | -122.67688 | 21196 ft | 383 kts | 356° |
| 2026-05-07 10:07 | 44.86802 | -122.67634 | 19926 ft | 381 kts | 357° |
| 2026-05-07 10:08 | 44.89287 | -122.67488 | 19174 ft | 335 kts | 358° |
| 2026-05-07 10:08 | 44.91548 | -122.67317 | 17937 ft | 324 kts | 357° |
| 2026-05-07 10:08 | 44.93803 | -122.67193 | 16662 ft | 323 kts | 356° |
| 2026-05-07 10:08 | 44.96039 | -122.67114 | 15396 ft | 318 kts | 355° |
| 2026-05-07 10:09 | 44.98090 | -122.67047 | 15033 ft | 268 kts | 357° |
| 2026-05-07 10:09 | 44.99806 | -122.66830 | 14984 ft | 233 kts | 358° |
| 2026-05-07 10:09 | 45.01442 | -122.66630 | 15000 ft | 242 kts | 358° |
| 2026-05-07 10:09 | 45.03134 | -122.66454 | 14987 ft | 248 kts | 357° |
| 2026-05-07 10:10 | 45.04842 | -122.66274 | 14985 ft | 244 kts | 358° |
| 2026-05-07 10:10 | 45.06535 | -122.66096 | 14983 ft | 245 kts | 357° |
| 2026-05-07 10:10 | 45.08237 | -122.65920 | 14631 ft | 253 kts | 357° |
| 2026-05-07 10:10 | 45.10023 | -122.65750 | 13300 ft | 254 kts | 357° |
| 2026-05-07 10:11 | 45.11782 | -122.65557 | 12239 ft | 248 kts | 359° |
| 2026-05-07 10:11 | 45.13462 | -122.65364 | 11257 ft | 237 kts | 359° |
| 2026-05-07 10:11 | 45.15066 | -122.65190 | 10753 ft | 218 kts | 359° |
| 2026-05-07 10:11 | 45.16535 | -122.65022 | 10551 ft | 211 kts | 358° |
| 2026-05-07 10:12 | 45.18056 | -122.64859 | 10280 ft | 227 kts | 359° |
| 2026-05-07 10:12 | 45.19641 | -122.64705 | 9965 ft | 226 kts | 359° |
| 2026-05-07 10:12 | 45.21181 | -122.64562 | 9665 ft | 224 kts | 359° |
| 2026-05-07 10:12 | 45.22762 | -122.64422 | 9354 ft | 225 kts | 359° |
| 2026-05-07 10:13 | 45.24332 | -122.64262 | 8867 ft | 239 kts | 4° |
| 2026-05-07 10:13 | 45.25908 | -122.63272 | 8448 ft | 254 kts | 28° |
| 2026-05-07 10:13 | 45.27409 | -122.61895 | 8225 ft | 261 kts | 28° |
| 2026-05-07 10:13 | 45.28999 | -122.60522 | 7930 ft | 272 kts | 27° |
| 2026-05-07 10:14 | 45.30646 | -122.59096 | 7625 ft | 280 kts | 28° |
| 2026-05-07 10:14 | 45.32306 | -122.57625 | 7305 ft | 284 kts | 28° |
| 2026-05-07 10:14 | 45.33976 | -122.56157 | 7010 ft | 281 kts | 28° |
| 2026-05-07 10:14 | 45.35645 | -122.54684 | 6711 ft | 281 kts | 29° |
| 2026-05-07 10:15 | 45.37275 | -122.53206 | 6419 ft | 273 kts | 30° |
| 2026-05-07 10:15 | 45.38859 | -122.51772 | 6097 ft | 265 kts | 30° |
| 2026-05-07 10:15 | 45.40379 | -122.50402 | 5987 ft | 252 kts | 30° |
| 2026-05-07 10:15 | 45.41824 | -122.49071 | 5980 ft | 246 kts | 35° |
| 2026-05-07 10:16 | 45.42812 | -122.47134 | 5875 ft | 251 kts | 72° |
| 2026-05-07 10:16 | 45.42805 | -122.44714 | 5775 ft | 245 kts | 104° |
| 2026-05-07 10:16 | 45.42321 | -122.42400 | 5611 ft | 241 kts | 106° |
| 2026-05-07 10:16 | 45.41856 | -122.40100 | 5309 ft | 243 kts | 107° |
| 2026-05-07 10:17 | 45.41333 | -122.37827 | 5026 ft | 243 kts | 112° |
| 2026-05-07 10:17 | 45.40828 | -122.35584 | 4984 ft | 232 kts | 101° |
| 2026-05-07 10:17 | 45.40937 | -122.33353 | 4912 ft | 223 kts | 69° |
| 2026-05-07 10:17 | 45.41688 | -122.31497 | 4966 ft | 215 kts | 41° |
| 2026-05-07 10:18 | 45.42913 | -122.30260 | 5016 ft | 220 kts | 20° |
| 2026-05-07 10:18 | 45.44397 | -122.29976 | 4984 ft | 216 kts | 350° |
| 2026-05-07 10:18 | 45.45761 | -122.30689 | 4924 ft | 205 kts | 332° |
| 2026-05-07 10:18 | 45.47028 | -122.31653 | 4671 ft | 209 kts | 320° |
| 2026-05-07 10:19 | 45.47882 | -122.33274 | 4437 ft | 202 kts | 299° |
| 2026-05-07 10:19 | 45.48630 | -122.34990 | 4242 ft | 207 kts | 302° |
| 2026-05-07 10:19 | 45.49410 | -122.36705 | 3995 ft | 203 kts | 301° |
| 2026-05-07 10:19 | 45.50145 | -122.38385 | 3765 ft | 202 kts | 300° |
| 2026-05-07 10:20 | 45.50882 | -122.40081 | 3521 ft | 196 kts | 300° |
| 2026-05-07 10:20 | 45.51551 | -122.41712 | 3285 ft | 190 kts | 298° |
| 2026-05-07 10:20 | 45.52165 | -122.43306 | 3040 ft | 184 kts | 297° |
| 2026-05-07 10:20 | 45.52800 | -122.44916 | 2791 ft | 177 kts | 299° |
| 2026-05-07 10:21 | 45.53379 | -122.46382 | 2542 ft | 163 kts | 298° |
| 2026-05-07 10:21 | 45.53934 | -122.47810 | 2302 ft | 166 kts | 299° |
| 2026-05-07 10:21 | 45.54478 | -122.49182 | 2036 ft | 156 kts | 300° |
| 2026-05-07 10:21 | 45.54982 | -122.50479 | 1797 ft | 144 kts | 300° |
| 2026-05-07 10:22 | 45.55476 | -122.51754 | 1521 ft | 144 kts | 300° |
| 2026-05-07 10:22 | 45.55941 | -122.52957 | 1248 ft | 135 kts | 300° |
| 2026-05-07 10:22 | 45.56392 | -122.54102 | 984 ft | 130 kts | 301° |
| 2026-05-07 10:22 | 45.56834 | -122.55218 | 727 ft | 129 kts | 301° |
| 2026-05-07 10:23 | 45.57266 | -122.56314 | 475 ft | 125 kts | 300° |
| 2026-05-07 10:23 | 45.57668 | -122.57380 | 247 ft | 122 kts | 300° |
| 2026-05-07 10:23 | 45.58072 | -122.58432 | 37 ft | 116 kts | 300° |
| 2026-05-07 10:23 | 45.58319 | -122.59072 | 31 ft | 16 kts | 298° |
| 2026-05-07 10:24 | 45.58367 | -122.59198 | 30 ft | 35 kts | 298° |
| 2026-05-07 10:24 | 45.58515 | -122.59588 | 36 ft | 41 kts | 298° |
| 2026-05-07 10:24 | 45.58699 | -122.59751 | 34 ft | 23 kts | 314° |
| 2026-05-07 10:24 | 45.58784 | -122.59943 | 35 ft | 21 kts | 301° |
| 2026-05-07 10:25 | 45.58832 | -122.60073 | 33 ft | 13 kts | 295° |
| 2026-05-07 10:25 | 45.58887 | -122.60175 | 30 ft | 13 kts | 325° |
| 2026-05-07 10:25 | 45.58980 | -122.60174 | 31 ft | 14 kts | 11° |
| 2026-05-07 10:25 | 45.59073 | -122.60110 | 28 ft | 15 kts | 34° |
| 2026-05-07 10:26 | 45.59138 | -122.60005 | 30 ft | 14 kts | 77° |
| 2026-05-07 10:26 | 45.59119 | -122.59881 | 29 ft | 10 kts | 116° |
| 2026-05-07 10:26 | 45.59085 | -122.59812 | 30 ft | 8 kts | 142° |
| 2026-05-07 10:26 | 45.59033 | -122.59831 | 31 ft | 4 kts | 215° |